createdAt,value
2019-03-09T00:00:07.467Z,32.77
2019-03-09T00:01:07.471Z,32.97
2019-03-09T00:02:07.408Z,32.97
2019-03-09T00:03:07.422Z,33.07
2019-03-09T00:04:07.387Z,32.47
2019-03-09T00:05:07.435Z,32.97
2019-03-09T00:06:07.390Z,32.77
2019-03-09T00:07:07.357Z,32.97
2019-03-09T00:08:07.343Z,32.87
2019-03-09T00:09:07.344Z,33.29
2019-03-09T00:10:07.342Z,32.97
2019-03-09T00:11:07.319Z,33.19
2019-03-09T00:12:07.337Z,32.99
2019-03-09T00:13:07.285Z,32.87
2019-03-09T00:14:07.272Z,33.17
2019-03-09T00:15:07.335Z,33.28
2019-03-09T00:16:07.266Z,33.17
2019-03-09T00:17:07.235Z,32.97
2019-03-09T00:18:07.243Z,32.99
2019-03-09T00:19:07.228Z,32.87
2019-03-09T00:20:07.211Z,32.67
2019-03-09T00:21:07.198Z,32.97
2019-03-09T00:22:07.190Z,32.99
2019-03-09T00:23:07.194Z,33.17
2019-03-09T00:24:07.156Z,33.19
2019-03-09T00:25:07.207Z,33.19
2019-03-09T00:26:07.297Z,32.89
2019-03-09T00:27:07.125Z,33.07
2019-03-09T00:28:07.109Z,33.07
2019-03-09T00:29:07.149Z,33.17
2019-03-09T00:30:07.098Z,33.17
2019-03-09T00:31:07.083Z,32.97
2019-03-09T00:32:07.073Z,33.17
2019-03-09T00:33:07.063Z,32.77
2019-03-09T00:34:07.078Z,33.07
2019-03-09T00:35:07.064Z,32.97
2019-03-09T00:36:07.028Z,33.17
2019-03-09T00:37:07.009Z,32.97
2019-03-09T00:38:06.997Z,33.07
2019-03-09T00:39:07.005Z,32.89
2019-03-09T00:40:07.009Z,33.17
2019-03-09T00:41:07.003Z,33.19
2019-03-09T00:42:06.965Z,33.17
2019-03-09T00:43:06.956Z,33.09
2019-03-09T00:44:06.935Z,33.09
2019-03-09T00:45:06.927Z,33.07
2019-03-09T00:46:06.984Z,33.07
2019-03-09T00:47:06.926Z,33.17
2019-03-09T00:48:07.003Z,33.37
2019-03-09T00:49:06.873Z,33.17
2019-03-09T00:50:06.867Z,32.67
2019-03-09T00:51:06.872Z,32.97
2019-03-09T00:52:06.875Z,32.87
2019-03-09T00:53:06.839Z,32.87
2019-03-09T00:54:06.817Z,32.97
2019-03-09T00:55:06.824Z,32.97
2019-03-09T00:56:06.920Z,33.07
2019-03-09T00:57:06.817Z,32.97
2019-03-09T00:58:06.781Z,33.17
2019-03-09T00:59:06.765Z,33.07
2019-03-09T01:00:06.756Z,32.89
2019-03-09T01:01:06.809Z,32.97
2019-03-09T01:02:06.740Z,33.19
2019-03-09T01:03:06.716Z,33.28
2019-03-09T01:04:06.721Z,33.47
2019-03-09T01:05:06.696Z,33.37
2019-03-09T01:06:06.697Z,33.29
2019-03-09T01:07:06.677Z,33.07
2019-03-09T01:08:06.656Z,33.17
2019-03-09T01:09:06.650Z,33.09
2019-03-09T01:10:06.680Z,33.19
2019-03-09T01:11:06.659Z,32.97
2019-03-09T01:12:06.749Z,33.37
2019-03-09T01:13:06.618Z,33.17
2019-03-09T01:14:06.639Z,33.28
2019-03-09T01:15:06.599Z,33.09
2019-03-09T01:16:06.620Z,33.29
2019-03-09T01:17:06.556Z,33.39
2019-03-09T01:18:06.555Z,33.19
2019-03-09T01:19:06.540Z,33.39
2019-03-09T01:20:06.524Z,33.29
2019-03-09T01:21:06.547Z,33.37
2019-03-09T01:22:06.512Z,33.28
2019-03-09T01:23:06.523Z,33.28
2019-03-09T01:24:06.483Z,33.47
2019-03-09T01:25:06.495Z,33.17
2019-03-09T01:26:06.622Z,33.28
2019-03-09T01:27:06.465Z,33.17
2019-03-09T01:28:06.438Z,32.99
2019-03-09T01:29:06.434Z,32.97
2019-03-09T01:30:06.433Z,33.17
2019-03-09T01:31:06.432Z,33.28
2019-03-09T01:32:06.400Z,33.17
2019-03-09T01:33:06.425Z,33.07
2019-03-09T01:34:06.412Z,32.97
2019-03-09T01:35:06.386Z,32.97
2019-03-09T01:36:06.359Z,32.97
2019-03-09T01:37:06.345Z,33.17
2019-03-09T01:38:06.394Z,33.17
2019-03-09T01:39:06.342Z,33.17
2019-03-09T01:40:06.337Z,33.47
2019-03-09T01:41:06.301Z,33.19
2019-03-09T01:42:06.296Z,32.97
2019-03-09T01:43:06.327Z,33.17
2019-03-09T01:44:06.250Z,33.58
2019-03-09T01:45:06.276Z,33.29
2019-03-09T01:46:06.313Z,33.37
2019-03-09T01:47:06.217Z,33.37
2019-03-09T01:48:06.211Z,33.28
2019-03-09T01:49:06.236Z,33.69
2019-03-09T01:50:06.209Z,33.78
2019-03-09T01:51:06.332Z,33.79
2019-03-09T01:52:06.268Z,33.79
2019-03-09T01:53:06.201Z,33.78
2019-03-09T01:54:06.147Z,33.89
2019-03-09T01:55:06.154Z,33.58
2019-03-09T01:56:06.158Z,33.47
2019-03-09T01:57:06.124Z,33.58
2019-03-09T01:58:06.097Z,33.67
2019-03-09T01:59:06.093Z,33.59
2019-03-09T02:00:06.123Z,33.69
2019-03-09T02:01:06.092Z,33.87
2019-03-09T02:02:06.074Z,33.59
2019-03-09T02:03:06.034Z,33.69
2019-03-09T02:04:06.081Z,33.79
2019-03-09T02:05:06.027Z,33.49
2019-03-09T02:06:06.010Z,33.39
2019-03-09T02:07:06.011Z,33.49
2019-03-09T02:08:05.977Z,32.89
2019-03-09T02:09:05.969Z,32.99
2019-03-09T02:10:05.995Z,33.09
2019-03-09T02:11:05.962Z,33.49
2019-03-09T02:12:06.008Z,32.99
2019-03-09T02:13:05.922Z,33.29
2019-03-09T02:14:05.912Z,33.49
2019-03-09T02:15:05.952Z,33.19
2019-03-09T02:16:05.901Z,33.29
2019-03-09T02:17:05.949Z,33.49
2019-03-09T02:18:05.878Z,33.29
2019-03-09T02:19:05.915Z,33.49
2019-03-09T02:20:05.851Z,33.29
2019-03-09T02:21:05.864Z,33.49
2019-03-09T02:22:05.852Z,33.09
2019-03-09T02:23:05.856Z,33.69
2019-03-09T02:24:05.822Z,33.79
2019-03-09T02:25:05.807Z,33.19
2019-03-09T02:26:05.835Z,33.39
2019-03-09T02:27:05.790Z,33.19
2019-03-09T02:28:05.769Z,33.89
2019-03-09T02:29:05.776Z,33.19
2019-03-09T02:30:05.793Z,33.39
2019-03-09T02:31:05.926Z,33.19
2019-03-09T02:32:05.731Z,33.19
2019-03-09T02:33:05.725Z,33.19
2019-03-09T02:34:05.716Z,33.39
2019-03-09T02:35:05.720Z,33.09
2019-03-09T02:36:05.808Z,33.79
2019-03-09T02:37:05.835Z,33.69
2019-03-09T02:38:05.692Z,33.49
2019-03-09T02:39:05.640Z,33.49
2019-03-09T02:40:05.650Z,33.49
2019-03-09T02:41:05.612Z,33.79
2019-03-09T02:42:05.616Z,33.19
2019-03-09T02:43:05.886Z,33.19
2019-03-09T02:44:05.572Z,33.39
2019-03-09T02:45:05.586Z,33.79
2019-03-09T02:46:05.550Z,33.59
2019-03-09T02:47:05.555Z,33.89
2019-03-09T02:48:05.577Z,34.19
2019-03-09T02:49:05.515Z,34.19
2019-03-09T02:50:05.525Z,34.69
2019-03-09T02:51:05.493Z,34.39
2019-03-09T02:52:05.535Z,33.29
2019-03-09T02:53:05.471Z,33.99
2019-03-09T02:54:05.471Z,33.79
2019-03-09T02:55:05.458Z,33.59
2019-03-09T02:56:05.459Z,34.39
2019-03-09T02:57:05.451Z,33.79
2019-03-09T02:58:05.476Z,33.79
2019-03-09T02:59:05.414Z,34.29
2019-03-09T03:00:05.392Z,34.31
2019-03-09T03:01:05.390Z,33.89
2019-03-09T03:02:05.412Z,33.89
2019-03-09T03:03:05.370Z,33.49
2019-03-09T03:04:05.401Z,33.59
2019-03-09T03:05:05.434Z,34.19
2019-03-09T03:06:05.338Z,34.39
2019-03-09T03:07:05.321Z,34.49
2019-03-09T03:08:05.327Z,33.79
2019-03-09T03:09:05.321Z,33.79
2019-03-09T03:10:05.310Z,34.19
2019-03-09T03:11:05.289Z,34.19
2019-03-09T03:12:05.268Z,33.99
2019-03-09T03:13:05.260Z,33.99
2019-03-09T03:14:05.245Z,33.99
2019-03-09T03:15:05.253Z,33.99
2019-03-09T03:16:05.220Z,34.49
2019-03-09T03:17:05.240Z,33.59
2019-03-09T03:18:05.219Z,33.79
2019-03-09T03:19:05.215Z,33.79
2019-03-09T03:20:05.217Z,33.79
2019-03-09T03:21:05.214Z,33.89
2019-03-09T03:22:05.144Z,34.59
2019-03-09T03:23:05.163Z,34.49
2019-03-09T03:24:05.131Z,34.59
2019-03-09T03:25:05.140Z,33.89
2019-03-09T03:26:05.232Z,34.49
2019-03-09T03:27:05.105Z,34.29
2019-03-09T03:28:05.124Z,34.29
2019-03-09T03:29:05.062Z,34.29
2019-03-09T03:30:05.159Z,33.49
2019-03-09T03:31:05.056Z,33.49
2019-03-09T03:32:05.062Z,33.99
2019-03-09T03:33:05.030Z,34.29
2019-03-09T03:34:05.158Z,34.09
2019-03-09T03:35:05.012Z,33.19
2019-03-09T03:36:05.021Z,34.29
2019-03-09T03:37:04.990Z,34.19
2019-03-09T03:38:04.999Z,34.29
2019-03-09T03:39:04.973Z,34.09
2019-03-09T03:40:04.967Z,34.29
2019-03-09T03:41:04.945Z,34.11
2019-03-09T03:42:04.977Z,34.81
2019-03-09T03:43:04.916Z,34.51
2019-03-09T03:44:04.925Z,34.11
2019-03-09T03:45:04.969Z,34.81
2019-03-09T03:46:04.871Z,34.41
2019-03-09T03:47:04.864Z,34.61
2019-03-09T03:48:04.918Z,34.41
2019-03-09T03:49:04.848Z,34.51
2019-03-09T03:50:04.849Z,34.51
2019-03-09T03:51:04.817Z,34.19
2019-03-09T03:52:04.815Z,34.11
2019-03-09T03:53:04.797Z,33.71
2019-03-09T03:54:04.803Z,34.39
2019-03-09T03:55:04.772Z,34.09
2019-03-09T03:56:04.916Z,34.80
2019-03-09T03:57:04.791Z,34.09
2019-03-09T03:58:04.735Z,34.19
2019-03-09T03:59:04.748Z,33.89
2019-03-09T04:00:04.772Z,33.89
2019-03-09T04:01:04.733Z,33.49
2019-03-09T04:02:04.697Z,33.89
2019-03-09T04:03:04.845Z,34.19
2019-03-09T04:04:04.694Z,34.49
2019-03-09T04:05:04.673Z,34.89
2019-03-09T04:06:04.658Z,34.80
2019-03-09T04:07:04.643Z,34.19
2019-03-09T04:08:04.655Z,34.09
2019-03-09T04:09:04.644Z,34.41
2019-03-09T04:10:04.603Z,34.31
2019-03-09T04:11:06.016Z,34.80
2019-03-09T04:12:04.605Z,34.41
2019-03-09T04:13:04.583Z,33.49
2019-03-09T04:14:04.617Z,34.49
2019-03-09T04:15:04.566Z,35.19
2019-03-09T04:16:04.538Z,34.49
2019-03-09T04:17:04.569Z,34.69
2019-03-09T04:18:04.509Z,34.59
2019-03-09T04:19:04.562Z,34.69
2019-03-09T04:20:04.499Z,34.59
2019-03-09T04:21:04.477Z,34.80
2019-03-09T04:22:04.491Z,34.39
2019-03-09T04:23:04.466Z,34.41
2019-03-09T04:24:04.448Z,34.51
2019-03-09T04:25:04.457Z,34.51
2019-03-09T04:26:04.480Z,34.11
2019-03-09T04:27:04.406Z,34.81
2019-03-09T04:28:04.432Z,34.41
2019-03-09T04:29:04.402Z,35.01
2019-03-09T04:30:04.424Z,34.11
2019-03-09T04:31:04.364Z,34.91
2019-03-09T04:32:04.351Z,34.11
2019-03-09T04:33:04.350Z,34.39
2019-03-09T04:34:04.340Z,33.99
2019-03-09T04:35:04.386Z,34.59
2019-03-09T04:36:04.314Z,34.21
2019-03-09T04:37:04.294Z,34.09
2019-03-09T04:38:04.311Z,34.01
2019-03-09T04:39:04.309Z,34.29
2019-03-09T04:40:04.270Z,35.31
2019-03-09T04:41:04.253Z,34.39
2019-03-09T04:42:04.236Z,34.21
2019-03-09T04:43:04.250Z,34.31
2019-03-09T04:44:04.213Z,34.99
2019-03-09T04:45:04.286Z,34.91
2019-03-09T04:46:04.194Z,35.41
2019-03-09T04:47:04.342Z,34.91
2019-03-09T04:48:04.183Z,35.11
2019-03-09T04:49:04.182Z,35.11
2019-03-09T04:50:04.170Z,34.80
2019-03-09T04:51:04.135Z,34.91
2019-03-09T04:52:04.126Z,34.91
2019-03-09T04:53:04.132Z,35.11
2019-03-09T04:54:04.105Z,34.80
2019-03-09T04:55:04.109Z,34.89
2019-03-09T04:56:04.118Z,34.69
2019-03-09T04:57:04.124Z,34.80
2019-03-09T04:58:04.057Z,34.69
2019-03-09T04:59:04.046Z,35.30
2019-03-09T05:00:04.044Z,34.69
2019-03-09T05:01:04.032Z,34.99
2019-03-09T05:02:04.019Z,34.80
2019-03-09T05:03:03.999Z,35.10
2019-03-09T05:04:04.002Z,35.10
2019-03-09T05:05:03.993Z,35.39
2019-03-09T05:06:03.969Z,35.39
2019-03-09T05:07:04.021Z,34.80
2019-03-09T05:08:03.949Z,34.80
2019-03-09T05:09:03.937Z,34.89
2019-03-09T05:10:03.939Z,35.10
2019-03-09T05:11:03.936Z,34.99
2019-03-09T05:12:03.927Z,35.30
2019-03-09T05:13:03.966Z,34.39
2019-03-09T05:14:03.879Z,34.59
2019-03-09T05:15:03.890Z,35.31
2019-03-09T05:16:03.873Z,34.41
2019-03-09T05:17:03.848Z,35.39
2019-03-09T05:18:03.871Z,35.11
2019-03-09T05:19:03.857Z,35.39
2019-03-09T05:20:03.834Z,35.91
2019-03-09T05:21:03.798Z,35.82
2019-03-09T05:22:03.849Z,35.82
2019-03-09T05:23:03.806Z,35.21
2019-03-09T05:24:03.774Z,35.10
2019-03-09T05:25:03.795Z,35.10
2019-03-09T05:26:03.778Z,34.99
2019-03-09T05:27:03.827Z,34.99
2019-03-09T05:28:03.739Z,35.39
2019-03-09T05:29:03.724Z,35.19
2019-03-09T05:30:03.723Z,35.80
2019-03-09T05:31:03.739Z,35.69
2019-03-09T05:32:04.624Z,35.80
2019-03-09T05:33:03.659Z,35.30
2019-03-09T05:34:03.669Z,35.30
2019-03-09T05:35:03.676Z,35.50
2019-03-09T05:36:03.640Z,35.50
2019-03-09T05:37:03.617Z,35.50
2019-03-09T05:38:03.620Z,35.50
2019-03-09T05:39:03.599Z,35.60
2019-03-09T05:40:03.581Z,35.60
2019-03-09T05:41:03.585Z,35.69
2019-03-09T05:42:03.563Z,35.60
2019-03-09T05:43:03.579Z,35.30
2019-03-09T05:44:03.539Z,35.69
2019-03-09T05:45:03.528Z,35.89
2019-03-09T05:46:03.520Z,35.69
2019-03-09T05:47:03.516Z,35.69
2019-03-09T05:48:03.495Z,35.69
2019-03-09T05:49:03.494Z,35.80
2019-03-09T05:50:04.684Z,35.80
2019-03-09T05:51:03.464Z,35.69
2019-03-09T05:52:03.477Z,35.80
2019-03-09T05:53:03.451Z,35.80
2019-03-09T05:54:03.606Z,35.80
2019-03-09T05:55:03.436Z,35.80
2019-03-09T05:56:03.557Z,36.00
2019-03-09T05:57:03.404Z,36.30
2019-03-09T05:58:03.430Z,36.40
2019-03-09T05:59:03.443Z,36.70
2019-03-09T06:00:03.376Z,36.60
2019-03-09T06:01:03.389Z,36.60
2019-03-09T06:02:03.351Z,35.69
2019-03-09T06:03:03.323Z,36.00
2019-03-09T06:04:03.332Z,36.10
2019-03-09T06:05:03.362Z,35.80
2019-03-09T06:06:03.402Z,36.32
2019-03-09T06:07:03.288Z,35.69
2019-03-09T06:08:03.270Z,35.69
2019-03-09T06:09:03.263Z,36.20
2019-03-09T06:10:03.248Z,36.30
2019-03-09T06:11:03.290Z,36.50
2019-03-09T06:12:03.280Z,36.60
2019-03-09T06:13:03.226Z,36.00
2019-03-09T06:14:03.215Z,36.60
2019-03-09T06:15:03.201Z,35.89
2019-03-09T06:16:03.177Z,35.69
2019-03-09T06:17:03.175Z,36.30
2019-03-09T06:18:03.187Z,36.20
2019-03-09T06:19:03.143Z,36.40
2019-03-09T06:20:03.140Z,36.10
2019-03-09T06:21:03.126Z,36.20
2019-03-09T06:22:03.126Z,36.20
2019-03-09T06:23:03.123Z,36.30
2019-03-09T06:24:03.100Z,36.30
2019-03-09T06:25:03.139Z,36.10
2019-03-09T06:26:03.242Z,36.10
2019-03-09T06:27:03.093Z,35.89
2019-03-09T06:28:03.045Z,35.89
2019-03-09T06:29:03.074Z,35.89
2019-03-09T06:30:03.050Z,36.10
2019-03-09T06:31:03.111Z,35.89
2019-03-09T06:32:03.006Z,35.89
2019-03-09T06:33:02.988Z,36.30
2019-03-09T06:34:02.994Z,36.00
2019-03-09T06:35:02.959Z,36.50
2019-03-09T06:36:02.950Z,36.10
2019-03-09T06:37:02.993Z,36.00
2019-03-09T06:38:02.976Z,36.10
2019-03-09T06:39:02.925Z,36.08
2019-03-09T06:40:02.911Z,35.69
2019-03-09T06:41:03.389Z,35.69
2019-03-09T06:42:02.900Z,35.88
2019-03-09T06:43:02.911Z,36.20
2019-03-09T06:44:02.869Z,36.30
2019-03-09T06:45:02.857Z,35.89
2019-03-09T06:46:02.842Z,35.89
2019-03-09T06:47:02.840Z,36.08
2019-03-09T06:48:02.853Z,36.10
2019-03-09T06:49:02.807Z,36.08
2019-03-09T06:50:02.811Z,36.08
2019-03-09T06:51:02.782Z,36.08
2019-03-09T06:52:02.811Z,35.88
2019-03-09T06:53:02.994Z,36.08
2019-03-09T06:54:02.758Z,35.78
2019-03-09T06:55:02.798Z,36.08
2019-03-09T06:56:02.967Z,35.88
2019-03-09T06:57:02.759Z,36.08
2019-03-09T06:58:02.747Z,35.88
2019-03-09T06:59:02.738Z,35.88
2019-03-09T07:00:02.697Z,36.08
2019-03-09T07:01:02.723Z,36.08
2019-03-09T07:02:02.682Z,36.30
2019-03-09T07:03:02.678Z,35.98
2019-03-09T07:04:02.640Z,36.50
2019-03-09T07:05:02.650Z,36.80
2019-03-09T07:06:02.611Z,36.68
2019-03-09T07:07:02.614Z,36.70
2019-03-09T07:08:02.606Z,36.40
2019-03-09T07:09:02.579Z,36.38
2019-03-09T07:10:02.575Z,36.78
2019-03-09T07:11:02.565Z,36.98
2019-03-09T07:12:02.600Z,36.68
2019-03-09T07:13:02.569Z,36.38
2019-03-09T07:14:02.524Z,36.30
2019-03-09T07:15:02.513Z,36.48
2019-03-09T07:16:02.498Z,36.70
2019-03-09T07:17:02.553Z,37.00
2019-03-09T07:18:02.481Z,36.58
2019-03-09T07:19:02.476Z,36.48
2019-03-09T07:20:11.965Z,36.48
2019-03-09T07:21:03.448Z,36.98
2019-03-09T07:22:02.521Z,36.38
2019-03-09T07:23:02.425Z,36.68
2019-03-09T07:24:02.484Z,36.58
2019-03-09T07:25:02.405Z,36.68
2019-03-09T07:26:02.428Z,37.08
2019-03-09T07:27:02.387Z,37.08
2019-03-09T07:28:02.393Z,36.38
2019-03-09T07:29:02.382Z,36.18
2019-03-09T07:30:02.343Z,36.98
2019-03-09T07:31:02.327Z,36.68
2019-03-09T07:32:02.317Z,36.98
2019-03-09T07:33:02.318Z,36.98
2019-03-09T07:34:02.319Z,36.78
2019-03-09T07:35:02.334Z,36.98
2019-03-09T07:36:02.315Z,36.98
2019-03-09T07:37:02.338Z,36.38
2019-03-09T07:38:02.258Z,36.88
2019-03-09T07:39:02.266Z,36.68
2019-03-09T07:40:02.235Z,36.68
2019-03-09T07:41:02.252Z,36.58
2019-03-09T07:42:02.273Z,36.58
2019-03-09T07:43:04.208Z,36.66
2019-03-09T07:44:02.291Z,36.68
2019-03-09T07:45:02.176Z,36.58
2019-03-09T07:46:02.166Z,36.78
2019-03-09T07:47:02.170Z,36.28
2019-03-09T07:48:02.196Z,36.98
2019-03-09T07:49:02.133Z,36.38
2019-03-09T07:50:02.128Z,36.38
2019-03-09T07:51:02.122Z,36.48
2019-03-09T07:52:02.126Z,36.38
2019-03-09T07:53:02.088Z,36.28
2019-03-09T07:54:02.117Z,36.38
2019-03-09T07:55:02.066Z,36.18
2019-03-09T07:56:02.099Z,36.28
2019-03-09T07:57:02.042Z,36.38
2019-03-09T07:58:02.042Z,36.38
2019-03-09T07:59:02.016Z,36.18
2019-03-09T08:00:02.001Z,36.18
2019-03-09T08:01:02.011Z,36.26
2019-03-09T08:02:01.979Z,36.38
2019-03-09T08:03:02.107Z,36.48
2019-03-09T08:04:01.972Z,36.48
2019-03-09T08:05:01.949Z,36.38
2019-03-09T08:06:01.938Z,36.38
2019-03-09T08:07:01.933Z,36.28
2019-03-09T08:08:01.923Z,36.26
2019-03-09T08:09:01.961Z,36.18
2019-03-09T08:10:01.920Z,36.26
2019-03-09T08:11:01.901Z,37.08
2019-03-09T08:12:01.869Z,36.36
2019-03-09T08:13:01.863Z,36.18
2019-03-09T08:14:01.890Z,36.28
2019-03-09T08:15:01.922Z,36.48
2019-03-09T08:16:01.844Z,36.38
2019-03-09T08:17:01.869Z,36.76
2019-03-09T08:18:01.804Z,36.18
2019-03-09T08:19:01.881Z,36.16
2019-03-09T08:20:01.820Z,37.08
2019-03-09T08:21:01.839Z,36.36
2019-03-09T08:22:01.782Z,36.78
2019-03-09T08:23:01.750Z,36.57
2019-03-09T08:24:01.757Z,36.96
2019-03-09T08:25:01.731Z,36.66
2019-03-09T08:26:01.815Z,36.78
2019-03-09T08:27:01.735Z,36.68
2019-03-09T08:28:01.788Z,36.07
2019-03-09T08:29:01.786Z,36.38
2019-03-09T08:30:02.454Z,36.18
2019-03-09T08:31:01.797Z,36.26
2019-03-09T08:32:01.658Z,36.28
2019-03-09T08:33:01.671Z,36.16
2019-03-09T08:34:01.626Z,36.18
2019-03-09T08:35:01.629Z,36.38
2019-03-09T08:36:01.638Z,37.08
2019-03-09T08:37:01.601Z,37.16
2019-03-09T08:38:01.602Z,36.26
2019-03-09T08:39:01.576Z,36.28
2019-03-09T08:40:01.558Z,36.28
2019-03-09T08:41:01.569Z,36.28
2019-03-09T08:42:01.538Z,36.36
2019-03-09T08:43:01.531Z,36.26
2019-03-09T08:44:01.552Z,36.68
2019-03-09T08:45:01.546Z,36.98
2019-03-09T08:46:01.495Z,36.87
2019-03-09T08:47:01.510Z,37.28
2019-03-09T08:48:01.497Z,36.87
2019-03-09T08:49:01.494Z,37.07
2019-03-09T08:50:01.487Z,37.07
2019-03-09T08:51:01.434Z,36.87
2019-03-09T08:52:01.469Z,37.37
2019-03-09T08:53:01.402Z,37.28
2019-03-09T08:54:01.428Z,37.07
2019-03-09T08:55:01.382Z,37.46
2019-03-09T08:56:01.454Z,37.27
2019-03-09T08:57:01.422Z,37.07
2019-03-09T08:58:01.403Z,36.16
2019-03-09T08:59:01.355Z,36.26
2019-03-09T09:00:01.322Z,36.46
2019-03-09T09:01:01.314Z,36.46
2019-03-09T09:02:01.314Z,36.26
2019-03-09T09:03:01.296Z,36.96
2019-03-09T09:04:01.299Z,36.87
2019-03-09T09:05:01.287Z,37.07
2019-03-09T09:06:01.270Z,36.96
2019-03-09T09:07:01.361Z,36.57
2019-03-09T09:08:03.608Z,36.26
2019-03-09T09:09:01.273Z,36.36
2019-03-09T09:10:01.213Z,36.26
2019-03-09T09:11:01.203Z,36.26
2019-03-09T09:12:01.244Z,36.15
2019-03-09T09:13:01.172Z,36.26
2019-03-09T09:14:01.198Z,36.16
2019-03-09T09:15:01.163Z,37.16
2019-03-09T09:16:01.153Z,36.76
2019-03-09T09:17:01.159Z,36.07
2019-03-09T09:18:01.133Z,36.57
2019-03-09T09:19:01.154Z,36.36
2019-03-09T09:20:01.117Z,36.66
2019-03-09T09:21:01.124Z,36.66
2019-03-09T09:22:01.077Z,36.76
2019-03-09T09:23:01.062Z,36.76
2019-03-09T09:24:01.069Z,36.46
2019-03-09T09:25:01.054Z,36.46
2019-03-09T09:26:01.035Z,36.96
2019-03-09T09:27:01.120Z,36.25
2019-03-09T09:28:01.026Z,36.46
2019-03-09T09:29:01.076Z,36.26
2019-03-09T09:30:01.036Z,36.16
2019-03-09T09:31:00.976Z,36.16
2019-03-09T09:32:00.985Z,36.26
2019-03-09T09:33:00.958Z,36.16
2019-03-09T09:34:00.960Z,36.46
2019-03-09T09:35:00.932Z,36.57
2019-03-09T09:36:00.973Z,36.46
2019-03-09T09:37:00.905Z,36.46
2019-03-09T09:38:00.896Z,36.26
2019-03-09T09:39:00.921Z,36.26
2019-03-09T09:40:00.872Z,36.46
2019-03-09T09:41:00.862Z,36.57
2019-03-09T09:42:00.860Z,36.66
2019-03-09T09:43:00.840Z,36.55
2019-03-09T09:44:00.836Z,36.35
2019-03-09T09:45:00.854Z,35.64
2019-03-09T09:46:00.809Z,36.44
2019-03-09T09:47:00.788Z,36.55
2019-03-09T09:48:00.785Z,35.64
2019-03-09T09:49:00.990Z,36.65
2019-03-09T09:50:00.766Z,36.55
2019-03-09T09:51:00.750Z,36.65
2019-03-09T09:52:00.761Z,36.55
2019-03-09T09:53:00.726Z,36.65
2019-03-09T09:54:00.775Z,36.85
2019-03-09T09:55:00.731Z,36.65
2019-03-09T09:56:00.734Z,36.55
2019-03-09T09:57:00.692Z,36.25
2019-03-09T09:58:00.685Z,36.05
2019-03-09T09:59:00.654Z,36.46
2019-03-09T10:00:00.661Z,36.96
2019-03-09T10:01:00.635Z,36.57
2019-03-09T10:02:00.630Z,36.94
2019-03-09T10:03:00.649Z,36.55
2019-03-09T10:04:00.611Z,36.55
2019-03-09T10:05:00.615Z,36.65
2019-03-09T10:06:00.578Z,36.44
2019-03-09T10:07:00.583Z,36.65
2019-03-09T10:08:00.549Z,36.55
2019-03-09T10:09:00.542Z,36.94
2019-03-09T10:10:00.546Z,36.65
2019-03-09T10:11:00.519Z,36.65
2019-03-09T10:12:00.506Z,36.87
2019-03-09T10:13:00.511Z,36.87
2019-03-09T10:14:00.519Z,35.96
2019-03-09T10:15:00.517Z,36.57
2019-03-09T10:16:00.465Z,36.55
2019-03-09T10:17:00.484Z,36.85
2019-03-09T10:18:00.471Z,36.65
2019-03-09T10:19:00.436Z,36.94
2019-03-09T10:20:00.426Z,36.55
2019-03-09T10:21:00.413Z,36.65
2019-03-09T10:22:00.409Z,35.64
2019-03-09T10:23:04.805Z,36.05
2019-03-09T10:24:00.475Z,36.05
2019-03-09T10:25:00.444Z,36.05
2019-03-09T10:26:11.150Z,36.05
2019-03-09T10:27:00.360Z,35.85
2019-03-09T10:28:00.334Z,36.35
2019-03-09T10:29:00.359Z,35.83
2019-03-09T10:30:00.442Z,35.63
2019-03-09T10:31:00.304Z,36.13
2019-03-09T10:32:00.290Z,36.05
2019-03-09T10:33:00.278Z,36.23
2019-03-09T10:34:00.313Z,35.85
2019-03-09T10:35:00.342Z,36.25
2019-03-09T10:36:00.267Z,36.13
2019-03-09T10:37:00.263Z,35.83
2019-03-09T10:38:00.252Z,36.03
2019-03-09T10:39:00.283Z,36.23
2019-03-09T10:40:00.322Z,36.23
2019-03-09T10:41:00.204Z,36.23
2019-03-09T10:42:00.174Z,36.13
2019-03-09T10:43:00.167Z,36.13
2019-03-09T10:44:00.200Z,35.83
2019-03-09T10:45:00.235Z,35.93
2019-03-09T10:46:00.139Z,36.03
2019-03-09T10:47:00.122Z,36.03
2019-03-09T10:48:00.104Z,36.13
2019-03-09T10:49:00.154Z,36.25
2019-03-09T10:50:00.113Z,36.33
2019-03-09T10:51:00.137Z,36.35
2019-03-09T10:52:00.071Z,36.05
2019-03-09T10:53:00.043Z,35.94
2019-03-09T10:54:00.046Z,36.05
2019-03-09T10:55:00.161Z,35.85
2019-03-09T10:56:00.162Z,35.85
2019-03-09T10:57:00.001Z,36.44
2019-03-09T10:58:00.014Z,36.25
2019-03-09T10:59:00.001Z,35.93
2019-03-09T11:00:00.025Z,36.13
2019-03-09T11:00:59.980Z,36.05
2019-03-09T11:01:59.980Z,36.13
2019-03-09T11:02:59.935Z,36.23
2019-03-09T11:03:59.923Z,36.03
2019-03-09T11:04:59.908Z,36.25
2019-03-09T11:05:59.983Z,36.23
2019-03-09T11:06:59.936Z,36.33
2019-03-09T11:08:00.012Z,36.23
2019-03-09T11:08:59.921Z,36.15
2019-03-09T11:09:59.859Z,35.94
2019-03-09T11:10:59.923Z,36.44
2019-03-09T11:11:59.829Z,36.03
2019-03-09T11:12:59.861Z,35.83
2019-03-09T11:13:59.825Z,36.23
2019-03-09T11:14:59.815Z,36.33
2019-03-09T11:15:59.845Z,35.83
2019-03-09T11:16:59.791Z,36.23
2019-03-09T11:17:59.801Z,36.03
2019-03-09T11:18:59.759Z,36.03
2019-03-09T11:19:59.753Z,35.53
2019-03-09T11:21:00.028Z,36.13
2019-03-09T11:21:59.715Z,35.73
2019-03-09T11:22:59.709Z,35.73
2019-03-09T11:23:59.703Z,35.73
2019-03-09T11:25:03.438Z,35.73
2019-03-09T11:25:59.768Z,35.73
2019-03-09T11:26:59.690Z,35.83
2019-03-09T11:27:59.665Z,36.13
2019-03-09T11:28:59.698Z,36.23
2019-03-09T11:29:59.628Z,36.23
2019-03-09T11:30:59.645Z,36.23
2019-03-09T11:31:59.637Z,36.13
2019-03-09T11:32:59.607Z,35.43
2019-03-09T11:33:59.584Z,35.83
2019-03-09T11:34:59.605Z,35.63
2019-03-09T11:35:59.594Z,35.43
2019-03-09T11:36:59.571Z,36.33
2019-03-09T11:37:59.542Z,36.03
2019-03-09T11:38:59.578Z,35.63
2019-03-09T11:39:59.570Z,36.13
2019-03-09T11:41:00.858Z,35.73
2019-03-09T11:41:59.543Z,35.63
2019-03-09T11:42:59.497Z,35.93
2019-03-09T11:43:59.488Z,35.73
2019-03-09T11:44:59.479Z,35.61
2019-03-09T11:45:59.457Z,35.83
2019-03-09T11:46:59.500Z,35.63
2019-03-09T11:47:59.509Z,35.63
2019-03-09T11:48:59.424Z,35.23
2019-03-09T11:49:59.404Z,35.43
2019-03-09T11:50:59.405Z,35.53
2019-03-09T11:51:59.414Z,35.73
2019-03-09T11:52:59.381Z,35.53
2019-03-09T11:53:59.402Z,35.93
2019-03-09T11:54:59.391Z,35.43
2019-03-09T11:55:59.392Z,35.73
2019-03-09T11:56:59.333Z,35.43
2019-03-09T11:57:59.336Z,35.43
2019-03-09T11:58:59.310Z,35.43
2019-03-09T11:59:59.292Z,35.73
2019-03-09T12:00:59.330Z,35.51
2019-03-09T12:01:59.316Z,35.71
2019-03-09T12:02:59.328Z,35.31
2019-03-09T12:03:59.259Z,34.71
2019-03-09T12:04:59.258Z,34.91
2019-03-09T12:05:59.242Z,35.01
2019-03-09T12:06:59.241Z,34.71
2019-03-09T12:07:59.256Z,34.81
2019-03-09T12:08:59.235Z,34.53
2019-03-09T12:09:59.225Z,34.91
2019-03-09T12:10:59.168Z,35.81
2019-03-09T12:11:59.198Z,35.53
2019-03-09T12:12:59.149Z,35.73
2019-03-09T12:13:59.140Z,35.73
2019-03-09T12:14:59.208Z,35.53
2019-03-09T12:15:59.426Z,35.73
2019-03-09T12:16:59.123Z,35.93
2019-03-09T12:17:59.102Z,35.53
2019-03-09T12:18:59.080Z,35.73
2019-03-09T12:19:59.095Z,35.63
2019-03-09T12:20:59.067Z,35.93
2019-03-09T12:21:59.114Z,35.43
2019-03-09T12:23:01.701Z,35.53
2019-03-09T12:23:59.028Z,35.21
2019-03-09T12:24:59.008Z,34.71
2019-03-09T12:25:59.057Z,34.83
2019-03-09T12:26:59.014Z,34.53
2019-03-09T12:27:58.988Z,34.71
2019-03-09T12:28:58.980Z,35.13
2019-03-09T12:29:59.125Z,34.81
2019-03-09T12:30:59.054Z,34.41
2019-03-09T12:31:58.930Z,34.51
2019-03-09T12:32:58.934Z,35.01
2019-03-09T12:33:58.958Z,34.61
2019-03-09T12:34:58.909Z,34.83
2019-03-09T12:35:58.890Z,34.81
2019-03-09T12:36:58.880Z,35.91
2019-03-09T12:37:58.969Z,35.01
2019-03-09T12:38:58.862Z,35.33
2019-03-09T12:39:58.853Z,34.81
2019-03-09T12:40:58.878Z,34.81
2019-03-09T12:41:58.832Z,34.71
2019-03-09T12:42:58.828Z,34.61
2019-03-09T12:43:58.805Z,34.81
2019-03-09T12:44:58.789Z,35.21
2019-03-09T12:45:58.787Z,34.91
2019-03-09T12:46:58.784Z,34.91
2019-03-09T12:47:58.801Z,35.01
2019-03-09T12:48:58.771Z,35.01
2019-03-09T12:49:58.748Z,35.21
2019-03-09T12:50:58.730Z,34.81
2019-03-09T12:51:58.708Z,35.01